sensor_id;sensor_type;location;lat;lon;timestamp;pressure;altitude;pressure_sealevel;temperature;humidity
45525;BME280;31437;58.350;13.828;2023-03-25T00:02:23;98689.81;;;4.47;100.00
45525;BME280;31437;58.350;13.828;2023-03-25T00:04:52;98694.13;;;4.47;100.00
45525;BME280;31437;58.350;13.828;2023-03-25T00:07:21;98689.72;;;4.49;100.00
45525;BME280;31437;58.350;13.828;2023-03-25T00:09:46;98686.34;;;4.47;100.00
45525;BME280;31437;58.350;13.828;2023-03-25T00:12:12;98688.03;;;4.48;100.00
45525;BME280;31437;58.350;13.828;2023-03-25T00:14:38;98694.13;;;4.47;100.00
45525;BME280;31437;58.350;13.828;2023-03-25T00:17:03;98687.13;;;4.49;100.00
45525;BME280;31437;58.350;13.828;2023-03-25T00:19:29;98689.66;;;4.50;100.00
45525;BME280;31437;58.350;13.828;2023-03-25T00:21:54;98693.06;;;4.51;100.00
45525;BME280;31437;58.350;13.828;2023-03-25T00:24:19;98698.16;;;4.52;100.00
45525;BME280;31437;58.350;13.828;2023-03-25T00:26:48;98681.84;;;4.50;100.00
45525;BME280;31437;58.350;13.828;2023-03-25T00:29:14;98686.13;;;4.51;100.00
45525;BME280;31437;58.350;13.828;2023-03-25T00:31:40;98688.78;;;4.50;100.00
45525;BME280;31437;58.350;13.828;2023-03-25T00:34:05;98693.25;;;4.48;100.00
45525;BME280;31437;58.350;13.828;2023-03-25T00:36:31;98688.88;;;4.48;100.00
45525;BME280;31437;58.350;13.828;2023-03-25T00:38:56;98699.34;;;4.47;100.00
45525;BME280;31437;58.350;13.828;2023-03-25T00:41:23;98696.75;;;4.47;100.00
45525;BME280;31437;58.350;13.828;2023-03-25T00:43:52;98695.00;;;4.47;100.00
45525;BME280;31437;58.350;13.828;2023-03-25T00:46:17;98695.06;;;4.46;100.00
45525;BME280;31437;58.350;13.828;2023-03-25T00:48:43;98702.84;;;4.46;100.00
45525;BME280;31437;58.350;13.828;2023-03-25T00:51:08;98691.72;;;4.44;100.00
45525;BME280;31437;58.350;13.828;2023-03-25T00:53:37;98705.72;;;4.41;100.00
45525;BME280;31437;58.350;13.828;2023-03-25T00:56:03;98697.06;;;4.41;100.00
45525;BME280;31437;58.350;13.828;2023-03-25T00:58:29;98690.19;;;4.40;100.00
45525;BME280;31437;58.350;13.828;2023-03-25T01:00:54;98698.91;;;4.39;100.00
45525;BME280;31437;58.350;13.828;2023-03-25T01:03:24;98693.78;;;4.37;100.00
45525;BME280;31437;58.350;13.828;2023-03-25T01:05:50;98691.19;;;4.37;100.00
45525;BME280;31437;58.350;13.828;2023-03-25T01:08:18;98698.16;;;4.37;100.00
45525;BME280;31437;58.350;13.828;2023-03-25T01:10:49;98696.50;;;4.36;100.00
45525;BME280;31437;58.350;13.828;2023-03-25T01:13:14;98704.34;;;4.34;100.00
45525;BME280;31437;58.350;13.828;2023-03-25T01:15:40;98692.28;;;4.33;100.00
45525;BME280;31437;58.350;13.828;2023-03-25T01:18:05;98697.47;;;4.33;100.00
45525;BME280;31437;58.350;13.828;2023-03-25T01:20:30;98698.47;;;4.30;100.00
45525;BME280;31437;58.350;13.828;2023-03-25T01:22:55;98693.28;;;4.30;100.00
45525;BME280;31437;58.350;13.828;2023-03-25T01:25:21;98695.13;;;4.28;100.00
45525;BME280;31437;58.350;13.828;2023-03-25T01:27:46;98695.94;;;4.29;100.00
45525;BME280;31437;58.350;13.828;2023-03-25T01:30:11;98700.25;;;4.30;100.00
45525;BME280;31437;58.350;13.828;2023-03-25T01:32:37;98701.06;;;4.30;100.00
45525;BME280;31437;58.350;13.828;2023-03-25T01:35:02;98705.44;;;4.30;100.00
45525;BME280;31437;58.350;13.828;2023-03-25T01:37:29;98699.41;;;4.29;100.00
45525;BME280;31437;58.350;13.828;2023-03-25T01:39:58;98710.63;;;4.30;100.00
45525;BME280;31437;58.350;13.828;2023-03-25T01:42:23;98716.66;;;4.30;100.00
45525;BME280;31437;58.350;13.828;2023-03-25T01:47:17;98715.66;;;4.33;100.00
45525;BME280;31437;58.350;13.828;2023-03-25T01:49:42;98715.66;;;4.33;100.00
45525;BME280;31437;58.350;13.828;2023-03-25T01:52:13;98707.78;;;4.35;100.00
45525;BME280;31437;58.350;13.828;2023-03-25T01:54:40;98719.84;;;4.36;100.00
45525;BME280;31437;58.350;13.828;2023-03-25T01:57:06;98722.34;;;4.37;100.00
45525;BME280;31437;58.350;13.828;2023-03-25T01:59:32;98723.19;;;4.38;100.00
45525;BME280;31437;58.350;13.828;2023-03-25T02:01:59;98724.88;;;4.39;100.00
45525;BME280;31437;58.350;13.828;2023-03-25T02:04:30;98729.97;;;4.40;100.00
45525;BME280;31437;58.350;13.828;2023-03-25T02:07:03;98728.22;;;4.41;100.00
45525;BME280;31437;58.350;13.828;2023-03-25T02:09:32;98732.50;;;4.42;100.00
45525;BME280;31437;58.350;13.828;2023-03-25T02:11:57;98727.22;;;4.43;100.00
45525;BME280;31437;58.350;13.828;2023-03-25T02:14:23;98730.66;;;4.44;100.00
45525;BME280;31437;58.350;13.828;2023-03-25T02:35:59;98744.03;;;4.53;100.00
45525;BME280;31437;58.350;13.828;2023-03-25T02:46:17;98743.03;;;4.56;100.00
45525;BME280;31437;58.350;13.828;2023-03-25T02:51:16;98761.88;;;4.60;100.00
45525;BME280;31437;58.350;13.828;2023-03-25T02:53:43;98767.91;;;4.60;100.00
45525;BME280;31437;58.350;13.828;2023-03-25T02:56:11;98761.78;;;4.61;100.00
45525;BME280;31437;58.350;13.828;2023-03-25T02:58:39;98763.53;;;4.61;100.00
45525;BME280;31437;58.350;13.828;2023-03-25T03:01:04;98766.97;;;4.61;100.00
45525;BME280;31437;58.350;13.828;2023-03-25T03:03:30;98761.03;;;4.59;100.00
45525;BME280;31437;58.350;13.828;2023-03-25T03:05:59;98761.03;;;4.59;100.00
45525;BME280;31437;58.350;13.828;2023-03-25T03:17:09;98781.88;;;4.58;100.00
45525;BME280;31437;58.350;13.828;2023-03-25T03:19:20;98787.19;;;4.56;100.00
45525;BME280;31437;58.350;13.828;2023-03-25T03:24:32;98799.22;;;4.57;100.00
45525;BME280;31437;58.350;13.828;2023-03-25T03:29:48;98802.75;;;4.56;100.00
45525;BME280;31437;58.350;13.828;2023-03-25T03:35:09;98812.22;;;4.57;100.00
45525;BME280;31437;58.350;13.828;2023-03-25T03:37:42;98813.16;;;4.56;100.00
45525;BME280;31437;58.350;13.828;2023-03-25T03:40:10;98812.22;;;4.57;100.00
45525;BME280;31437;58.350;13.828;2023-03-25T03:42:39;98807.84;;;4.58;100.00
45525;BME280;31437;58.350;13.828;2023-03-25T03:45:07;98811.38;;;4.57;100.00
45525;BME280;31437;58.350;13.828;2023-03-25T03:47:35;98812.22;;;4.57;100.00
45525;BME280;31437;58.350;13.828;2023-03-25T03:50:04;98817.41;;;4.57;100.00
45525;BME280;31437;58.350;13.828;2023-03-25T03:52:37;98815.75;;;4.56;100.00
45525;BME280;31437;58.350;13.828;2023-03-25T03:55:07;98816.56;;;4.57;100.00
45525;BME280;31437;58.350;13.828;2023-03-25T03:57:42;98816.66;;;4.55;100.00
45525;BME280;31437;58.350;13.828;2023-03-25T04:00:11;98811.38;;;4.57;100.00
45525;BME280;31437;58.350;13.828;2023-03-25T04:02:44;98811.44;;;4.55;100.00
45525;BME280;31437;58.350;13.828;2023-03-25T04:05:13;98805.41;;;4.54;100.00
45525;BME280;31437;58.350;13.828;2023-03-25T04:07:44;98814.97;;;4.54;100.00
45525;BME280;31437;58.350;13.828;2023-03-25T04:10:22;98812.38;;;4.54;100.00
45525;BME280;31437;58.350;13.828;2023-03-25T04:12:53;98813.22;;;4.54;100.00
45525;BME280;31437;58.350;13.828;2023-03-25T04:15:19;98812.38;;;4.54;100.00
45525;BME280;31437;58.350;13.828;2023-03-25T04:17:45;98820.16;;;4.54;100.00
45525;BME280;31437;58.350;13.828;2023-03-25T04:20:16;98815.91;;;4.53;100.00
45525;BME280;31437;58.350;13.828;2023-03-25T04:22:47;98811.53;;;4.53;100.00
45525;BME280;31437;58.350;13.828;2023-03-25T04:25:13;98809.00;;;4.52;100.00
45525;BME280;31437;58.350;13.828;2023-03-25T04:27:39;98812.44;;;4.52;100.00
45525;BME280;31437;58.350;13.828;2023-03-25T04:30:04;98810.72;;;4.53;100.00
45525;BME280;31437;58.350;13.828;2023-03-25T04:32:30;98810.72;;;4.53;100.00
45525;BME280;31437;58.350;13.828;2023-03-25T04:34:55;98820.22;;;4.52;100.00
45525;BME280;31437;58.350;13.828;2023-03-25T04:37:25;98819.41;;;4.52;100.00
45525;BME280;31437;58.350;13.828;2023-03-25T04:39:51;98813.31;;;4.53;100.00
45525;BME280;31437;58.350;13.828;2023-03-25T04:42:18;98815.97;;;4.51;100.00
45525;BME280;31437;58.350;13.828;2023-03-25T04:44:43;98822.81;;;4.52;100.00
45525;BME280;31437;58.350;13.828;2023-03-25T04:47:11;98819.41;;;4.52;100.00
45525;BME280;31437;58.350;13.828;2023-03-25T04:49:39;98823.69;;;4.53;100.00
45525;BME280;31437;58.350;13.828;2023-03-25T04:52:05;98814.22;;;4.52;100.00
45525;BME280;31437;58.350;13.828;2023-03-25T04:54:33;98809.00;;;4.52;100.00
45525;BME280;31437;58.350;13.828;2023-03-25T04:56:58;98812.44;;;4.52;100.00
45525;BME280;31437;58.350;13.828;2023-03-25T04:59:23;98806.41;;;4.52;100.00
45525;BME280;31437;58.350;13.828;2023-03-25T05:01:49;98805.56;;;4.51;100.00
45525;BME280;31437;58.350;13.828;2023-03-25T05:04:14;98802.97;;;4.51;100.00
45525;BME280;31437;58.350;13.828;2023-03-25T05:06:45;98797.78;;;4.51;100.00
45525;BME280;31437;58.350;13.828;2023-03-25T05:09:15;98793.44;;;4.52;100.00
45525;BME280;31437;58.350;13.828;2023-03-25T05:11:41;98802.16;;;4.51;100.00
45525;BME280;31437;58.350;13.828;2023-03-25T05:14:07;98799.47;;;4.52;100.00
45525;BME280;31437;58.350;13.828;2023-03-25T05:16:33;98802.06;;;4.52;100.00
45525;BME280;31437;58.350;13.828;2023-03-25T05:18:58;98800.31;;;4.53;100.00
45525;BME280;31437;58.350;13.828;2023-03-25T05:21:23;98796.84;;;4.52;100.00
45525;BME280;31437;58.350;13.828;2023-03-25T05:23:49;98800.31;;;4.53;100.00
45525;BME280;31437;58.350;13.828;2023-03-25T05:26:15;98799.28;;;4.55;100.00
45525;BME280;31437;58.350;13.828;2023-03-25T05:28:40;98791.44;;;4.57;100.00
45525;BME280;31437;58.350;13.828;2023-03-25T05:31:06;98793.03;;;4.60;100.00
45525;BME280;31437;58.350;13.828;2023-03-25T05:33:35;98787.75;;;4.61;100.00
45525;BME280;31437;58.350;13.828;2023-03-25T05:36:06;98790.28;;;4.63;100.00
45525;BME280;31437;58.350;13.828;2023-03-25T05:38:33;98782.41;;;4.64;100.00
45525;BME280;31437;58.350;13.828;2023-03-25T05:40:58;98781.41;;;4.67;100.00
45525;BME280;31437;58.350;13.828;2023-03-25T05:43:24;98780.41;;;4.69;100.00
45525;BME280;31437;58.350;13.828;2023-03-25T05:45:49;98776.88;;;4.70;100.00
45525;BME280;31437;58.350;13.828;2023-03-25T05:48:15;98768.03;;;4.74;100.00
45525;BME280;31437;58.350;13.828;2023-03-25T05:50:40;98766.94;;;4.78;100.00
45525;BME280;31437;58.350;13.828;2023-03-25T05:53:08;98764.09;;;4.83;100.00
45525;BME280;31437;58.350;13.828;2023-03-25T05:55:35;98765.44;;;4.90;100.00
45525;BME280;31437;58.350;13.828;2023-03-25T05:58:00;98766.88;;;4.96;100.00
45525;BME280;31437;58.350;13.828;2023-03-25T06:00:25;98764.09;;;4.99;100.00
45525;BME280;31437;58.350;13.828;2023-03-25T06:02:51;98770.84;;;5.03;100.00
45525;BME280;31437;58.350;13.828;2023-03-25T06:05:16;98767.22;;;5.06;100.00
45525;BME280;31437;58.350;13.828;2023-03-25T06:07:42;98765.22;;;5.11;100.00
45525;BME280;31437;58.350;13.828;2023-03-25T06:10:08;98767.47;;;5.17;100.00
45525;BME280;31437;58.350;13.828;2023-03-25T06:12:34;98762.78;;;5.23;100.00
45525;BME280;31437;58.350;13.828;2023-03-25T06:15:03;98770.91;;;5.33;100.00
45525;BME280;31437;58.350;13.828;2023-03-25T06:17:29;98764.03;;;5.48;100.00
45525;BME280;31437;58.350;13.828;2023-03-25T06:19:57;98762.56;;;5.58;100.00
45525;BME280;31437;58.350;13.828;2023-03-25T06:22:24;98754.34;;;5.66;100.00
45525;BME280;31437;58.350;13.828;2023-03-25T06:24:50;98763.00;;;5.66;100.00
45525;BME280;31437;58.350;13.828;2023-03-25T06:27:16;98761.03;;;5.70;100.00
45525;BME280;31437;58.350;13.828;2023-03-25T06:29:42;98749.63;;;5.73;100.00
45525;BME280;31437;58.350;13.828;2023-03-25T06:32:08;98747.03;;;5.73;100.00
45525;BME280;31437;58.350;13.828;2023-03-25T06:34:34;98737.81;;;5.67;100.00
45525;BME280;31437;58.350;13.828;2023-03-25T06:37:00;98740.94;;;5.58;100.00
45525;BME280;31437;58.350;13.828;2023-03-25T06:39:26;98726.69;;;5.49;100.00
45525;BME280;31437;58.350;13.828;2023-03-25T06:41:58;98715.13;;;5.39;100.00
45525;BME280;31437;58.350;13.828;2023-03-25T06:44:24;98716.03;;;5.38;100.00
45525;BME280;31437;58.350;13.828;2023-03-25T06:46:49;98698.94;;;5.34;100.00
45525;BME280;31437;58.350;13.828;2023-03-25T06:49:14;98697.44;;;5.30;100.00
45525;BME280;31437;58.350;13.828;2023-03-25T06:51:40;98682.69;;;5.30;100.00
45525;BME280;31437;58.350;13.828;2023-03-25T06:54:05;98689.25;;;5.21;100.00
45525;BME280;31437;58.350;13.828;2023-03-25T06:56:31;98698.03;;;5.19;100.00
45525;BME280;31437;58.350;13.828;2023-03-25T06:58:56;98684.63;;;5.11;100.00
45525;BME280;31437;58.350;13.828;2023-03-25T07:01:21;98686.72;;;5.04;100.00
45525;BME280;31437;58.350;13.828;2023-03-25T07:03:47;98683.53;;;4.99;100.00
45525;BME280;31437;58.350;13.828;2023-03-25T07:06:16;98694.38;;;4.91;100.00
45525;BME280;31437;58.350;13.828;2023-03-25T07:08:42;98686.16;;;4.83;100.00
45525;BME280;31437;58.350;13.828;2023-03-25T07:11:08;98678.94;;;4.72;100.00
45525;BME280;31437;58.350;13.828;2023-03-25T07:13:34;98673.31;;;4.64;100.00
45525;BME280;31437;58.350;13.828;2023-03-25T07:15:59;98664.94;;;4.59;100.00
45525;BME280;31437;58.350;13.828;2023-03-25T07:18:25;98664.25;;;4.55;100.00
45525;BME280;31437;58.350;13.828;2023-03-25T07:20:50;98673.81;;;4.55;100.00
45525;BME280;31437;58.350;13.828;2023-03-25T07:23:16;98672.97;;;4.54;100.00
45525;BME280;31437;58.350;13.828;2023-03-25T07:25:41;98671.31;;;4.53;100.00
45525;BME280;31437;58.350;13.828;2023-03-25T07:28:06;98661.75;;;4.54;100.00
45525;BME280;31437;58.350;13.828;2023-03-25T07:30:32;98656.63;;;4.52;100.00
45525;BME280;31437;58.350;13.828;2023-03-25T07:32:57;98664.25;;;4.55;100.00
45525;BME280;31437;58.350;13.828;2023-03-25T07:35:22;98659.91;;;4.56;100.00
45525;BME280;31437;58.350;13.828;2023-03-25T07:37:48;98663.25;;;4.58;100.00
45525;BME280;31437;58.350;13.828;2023-03-25T07:40:13;98663.00;;;4.63;100.00
45525;BME280;31437;58.350;13.828;2023-03-25T07:42:38;98668.63;;;4.71;100.00
45525;BME280;31437;58.350;13.828;2023-03-25T07:45:04;98671.81;;;4.76;100.00
45525;BME280;31437;58.350;13.828;2023-03-25T07:47:30;98672.34;;;4.83;100.00
45525;BME280;31437;58.350;13.828;2023-03-25T07:49:55;98683.13;;;4.91;100.00
45525;BME280;31437;58.350;13.828;2023-03-25T07:52:20;98678.50;;;4.96;100.00
45525;BME280;31437;58.350;13.828;2023-03-25T07:54:46;98683.47;;;5.00;100.00
45525;BME280;31437;58.350;13.828;2023-03-25T07:57:11;98678.59;;;5.10;100.00
45525;BME280;31437;58.350;13.828;2023-03-25T07:59:37;98688.47;;;5.19;100.00
45525;BME280;31437;58.350;13.828;2023-03-25T08:02:02;98688.06;;;5.27;100.00
45525;BME280;31437;58.350;13.828;2023-03-25T08:04:28;98689.19;;;5.37;100.00
45525;BME280;31437;58.350;13.828;2023-03-25T08:06:53;98694.88;;;5.44;100.00
45525;BME280;31437;58.350;13.828;2023-03-25T08:09:18;98690.84;;;5.54;100.00
45525;BME280;31437;58.350;13.828;2023-03-25T08:11:44;98688.06;;;5.57;100.00
45525;BME280;31437;58.350;13.828;2023-03-25T08:14:10;98682.03;;;5.57;100.00
45525;BME280;31437;58.350;13.828;2023-03-25T08:16:35;98677.66;;;5.57;100.00
45525;BME280;31437;58.350;13.828;2023-03-25T08:19:01;98668.75;;;5.61;100.00
45525;BME280;31437;58.350;13.828;2023-03-25T08:21:30;98668.31;;;5.69;100.00
45525;BME280;31437;58.350;13.828;2023-03-25T08:23:56;98668.06;;;5.74;100.00
45525;BME280;31437;58.350;13.828;2023-03-25T08:26:28;98665.00;;;5.81;100.00
45525;BME280;31437;58.350;13.828;2023-03-25T08:28:55;98669.53;;;5.78;100.00
45525;BME280;31437;58.350;13.828;2023-03-25T08:31:22;98664.34;;;5.78;100.00
45525;BME280;31437;58.350;13.828;2023-03-25T08:33:47;98665.28;;;5.77;100.00
45525;BME280;31437;58.350;13.828;2023-03-25T08:36:13;98665.94;;;5.80;100.00
45525;BME280;31437;58.350;13.828;2023-03-25T08:38:47;98661.84;;;5.90;100.00
45525;BME280;31437;58.350;13.828;2023-03-25T08:41:12;98651.84;;;5.99;100.00
45525;BME280;31437;58.350;13.828;2023-03-25T08:43:38;98658.66;;;6.16;100.00
45525;BME280;31437;58.350;13.828;2023-03-25T08:46:03;98662.75;;;6.34;100.00
45525;BME280;31437;58.350;13.828;2023-03-25T08:48:28;98671.84;;;6.41;100.00
45525;BME280;31437;58.350;13.828;2023-03-25T08:50:54;98663.56;;;6.49;100.00
45525;BME280;31437;58.350;13.828;2023-03-25T08:53:20;98662.38;;;6.54;100.00
45525;BME280;31437;58.350;13.828;2023-03-25T08:55:46;98645.34;;;6.49;100.00
45525;BME280;31437;58.350;13.828;2023-03-25T08:58:15;98640.44;;;6.44;100.00
45525;BME280;31437;58.350;13.828;2023-03-25T09:00:40;98637.16;;;6.41;100.00
45525;BME280;31437;58.350;13.828;2023-03-25T09:03:06;98620.94;;;6.50;100.00
45525;BME280;31437;58.350;13.828;2023-03-25T09:05:31;98632.03;;;6.68;100.00
45525;BME280;31437;58.350;13.828;2023-03-25T09:07:56;98629.94;;;7.00;100.00
45525;BME280;31437;58.350;13.828;2023-03-25T09:10:22;98637.03;;;7.25;100.00
45525;BME280;31437;58.350;13.828;2023-03-25T09:12:47;98623.16;;;7.24;100.00
45525;BME280;31437;58.350;13.828;2023-03-25T09:15:12;98618.88;;;7.23;100.00
45525;BME280;31437;58.350;13.828;2023-03-25T09:17:40;98607.09;;;7.18;100.00
45525;BME280;31437;58.350;13.828;2023-03-25T09:20:06;98597.69;;;7.15;100.00
45525;BME280;31437;58.350;13.828;2023-03-25T09:22:33;98588.72;;;7.19;100.00
45525;BME280;31437;58.350;13.828;2023-03-25T09:24:59;98590.38;;;7.20;100.00
45525;BME280;31437;58.350;13.828;2023-03-25T09:27:24;98581.00;;;7.18;100.00
45525;BME280;31437;58.350;13.828;2023-03-25T09:29:49;98570.03;;;7.13;100.00
45525;BME280;31437;58.350;13.828;2023-03-25T09:32:15;98572.22;;;7.06;100.00
45525;BME280;31437;58.350;13.828;2023-03-25T09:34:42;98567.50;;;6.98;100.00
45525;BME280;31437;58.350;13.828;2023-03-25T09:37:07;98570.94;;;6.99;100.00
45525;BME280;31437;58.350;13.828;2023-03-25T09:39:33;98573.66;;;6.97;100.00
45525;BME280;31437;58.350;13.828;2023-03-25T09:42:07;98572.91;;;6.95;100.00
45525;BME280;31437;58.350;13.828;2023-03-25T09:47:09;98580.09;;;6.92;100.00
45525;BME280;31437;58.350;13.828;2023-03-25T09:49:44;98589.59;;;6.93;100.00
45525;BME280;31437;58.350;13.828;2023-03-25T09:52:19;98596.56;;;6.92;100.00
45525;BME280;31437;58.350;13.828;2023-03-25T09:54:48;98601.78;;;6.92;100.00
45525;BME280;31437;58.350;13.828;2023-03-25T09:57:17;98602.72;;;6.91;100.00
45525;BME280;31437;58.350;13.828;2023-03-25T09:59:43;98608.97;;;6.89;100.00
45525;BME280;31437;58.350;13.828;2023-03-25T10:04:53;98615.75;;;6.91;100.00
45525;BME280;31437;58.350;13.828;2023-03-25T10:12:40;98613.69;;;6.96;100.00
45525;BME280;31437;58.350;13.828;2023-03-25T10:20:02;98627.78;;;7.34;100.00
45525;BME280;31437;58.350;13.828;2023-03-25T10:23:07;98638.16;;;7.61;100.00
45525;BME280;31437;58.350;13.828;2023-03-25T10:25:35;98636.09;;;7.79;100.00
45525;BME280;31437;58.350;13.828;2023-03-25T10:28:02;98622.22;;;7.91;100.00
45525;BME280;31437;58.350;13.828;2023-03-25T10:30:31;98616.66;;;8.08;100.00
45525;BME280;31437;58.350;13.828;2023-03-25T10:32:58;98611.25;;;8.24;100.00
45525;BME280;31437;58.350;13.828;2023-03-25T10:35:29;98602.63;;;8.35;100.00
45525;BME280;31437;58.350;13.828;2023-03-25T10:40:40;98579.03;;;8.36;100.00
45525;BME280;31437;58.350;13.828;2023-03-25T10:45:43;98570.75;;;8.55;100.00
45525;BME280;31437;58.350;13.828;2023-03-25T10:48:30;98561.31;;;8.66;100.00
45525;BME280;31437;58.350;13.828;2023-03-25T10:53:30;98521.13;;;8.43;100.00
45525;BME280;31437;58.350;13.828;2023-03-25T10:56:03;98512.97;;;8.34;100.00
45525;BME280;31437;58.350;13.828;2023-03-25T10:58:30;98509.63;;;8.32;100.00
45525;BME280;31437;58.350;13.828;2023-03-25T11:00:56;98509.84;;;8.29;100.00
45525;BME280;31437;58.350;13.828;2023-03-25T11:03:24;98508.34;;;8.38;100.00
45525;BME280;31437;58.350;13.828;2023-03-25T11:05:50;98508.66;;;8.59;100.00
45525;BME280;31437;58.350;13.828;2023-03-25T11:08:16;98506.91;;;8.71;100.00
45525;BME280;31437;58.350;13.828;2023-03-25T11:10:49;98494.63;;;8.60;100.00
45525;BME280;31437;58.350;13.828;2023-03-25T11:13:22;98490.72;;;8.66;100.00
45525;BME280;31437;58.350;13.828;2023-03-25T11:15:47;98494.41;;;8.63;100.00
45525;BME280;31437;58.350;13.828;2023-03-25T11:18:35;98488.16;;;8.53;100.00
45525;BME280;31437;58.350;13.828;2023-03-25T11:21:04;98483.50;;;8.45;100.00
45525;BME280;31437;58.350;13.828;2023-03-25T11:23:32;98485.59;;;8.40;100.00
45525;BME280;31437;58.350;13.828;2023-03-25T11:26:10;98490.41;;;8.33;100.00
45525;BME280;31437;58.350;13.828;2023-03-25T11:33:31;98515.16;;;8.04;100.00
45525;BME280;31437;58.350;13.828;2023-03-25T11:38:32;98530.66;;;7.30;100.00
45525;BME280;31437;58.350;13.828;2023-03-25T11:41:04;98518.22;;;6.81;100.00
45525;BME280;31437;58.350;13.828;2023-03-25T11:43:37;98511.88;;;6.58;100.00
45525;BME280;31437;58.350;13.828;2023-03-25T11:51:14;98529.19;;;6.18;100.00
45525;BME280;31437;58.350;13.828;2023-03-25T11:53:43;98537.31;;;6.13;100.00
45525;BME280;31437;58.350;13.828;2023-03-25T11:56:10;98547.41;;;6.18;100.00
45525;BME280;31437;58.350;13.828;2023-03-25T12:03:39;98572.41;;;6.34;100.00
45525;BME280;31437;58.350;13.828;2023-03-25T12:08:47;98577.19;;;6.28;100.00
45525;BME280;31437;58.350;13.828;2023-03-25T12:11:27;98574.56;;;6.28;100.00
45525;BME280;31437;58.350;13.828;2023-03-25T12:14:11;98589.81;;;6.34;100.00
45525;BME280;31437;58.350;13.828;2023-03-25T12:16:52;98586.63;;;6.43;100.00
45525;BME280;31437;58.350;13.828;2023-03-25T12:32:29;98619.44;;;6.74;100.00
45525;BME280;31437;58.350;13.828;2023-03-25T12:42:26;98630.06;;;6.57;100.00
45525;BME280;31437;58.350;13.828;2023-03-25T12:47:38;98627.34;;;6.58;100.00
45525;BME280;31437;58.350;13.828;2023-03-25T12:52:47;98632.88;;;6.54;100.00
45525;BME280;31437;58.350;13.828;2023-03-25T12:55:23;98636.44;;;6.39;100.00
45525;BME280;31437;58.350;13.828;2023-03-25T13:08:21;98622.19;;;6.01;100.00
45525;BME280;31437;58.350;13.828;2023-03-25T13:16:06;98644.63;;;6.18;100.00
45525;BME280;31437;58.350;13.828;2023-03-25T13:18:40;98646.22;;;6.21;100.00
45525;BME280;31437;58.350;13.828;2023-03-25T13:21:18;98647.88;;;6.22;100.00
45525;BME280;31437;58.350;13.828;2023-03-25T13:23:47;98651.03;;;6.27;100.00
45525;BME280;31437;58.350;13.828;2023-03-25T13:26:16;98658.56;;;6.31;100.00
45525;BME280;31437;58.350;13.828;2023-03-25T13:31:52;98652.91;;;6.25;100.00
45525;BME280;31437;58.350;13.828;2023-03-25T13:37:18;98664.31;;;6.22;100.00
45525;BME280;31437;58.350;13.828;2023-03-25T13:47:53;98684.59;;;6.17;100.00
45525;BME280;31437;58.350;13.828;2023-03-25T13:50:26;98682.34;;;6.11;100.00
45525;BME280;31437;58.350;13.828;2023-03-25T13:52:55;98681.44;;;6.12;100.00
45525;BME280;31437;58.350;13.828;2023-03-25T13:55:43;98689.16;;;6.13;100.00
45525;BME280;31437;58.350;13.828;2023-03-25T14:13:49;98725.34;;;6.18;100.00
45525;BME280;31437;58.350;13.828;2023-03-25T14:16:17;98725.59;;;6.13;100.00
45525;BME280;31437;58.350;13.828;2023-03-25T14:19:03;98727.63;;;6.08;100.00
45525;BME280;31437;58.350;13.828;2023-03-25T14:21:33;98728.28;;;5.98;100.00
45525;BME280;31437;58.350;13.828;2023-03-25T14:26:29;98717.31;;;5.77;100.00
45525;BME280;31437;58.350;13.828;2023-03-25T14:28:56;98706.97;;;5.75;100.00
45525;BME280;31437;58.350;13.828;2023-03-25T14:36:30;98698.78;;;5.67;100.00
45525;BME280;31437;58.350;13.828;2023-03-25T14:38:56;98694.41;;;5.67;100.00
45525;BME280;31437;58.350;13.828;2023-03-25T14:49:20;98720.88;;;5.90;100.00
45525;BME280;31437;58.350;13.828;2023-03-25T14:59:17;98749.28;;;6.53;100.00
45525;BME280;31437;58.350;13.828;2023-03-25T15:01:46;98747.13;;;6.60;100.00
45525;BME280;31437;58.350;13.828;2023-03-25T15:04:22;98745.09;;;6.65;100.00
45525;BME280;31437;58.350;13.828;2023-03-25T15:06:49;98744.91;;;6.68;100.00
45525;BME280;31437;58.350;13.828;2023-03-25T15:09:14;98747.97;;;6.75;100.00
45525;BME280;31437;58.350;13.828;2023-03-25T15:11:58;98746.66;;;6.82;100.00
45525;BME280;31437;58.350;13.828;2023-03-25T15:14:33;98751.78;;;6.83;100.00
45525;BME280;31437;58.350;13.828;2023-03-25T15:17:04;98750.94;;;6.83;100.00
45525;BME280;31437;58.350;13.828;2023-03-25T15:20:11;98743.50;;;6.77;100.00
45525;BME280;31437;58.350;13.828;2023-03-25T15:22:19;98732.22;;;6.76;100.00
45525;BME280;31437;58.350;13.828;2023-03-25T15:24:52;98730.66;;;6.74;100.00
45525;BME280;31437;58.350;13.828;2023-03-25T15:27:40;98727.50;;;6.69;100.00
45525;BME280;31437;58.350;13.828;2023-03-25T15:35:36;98727.03;;;6.48;100.00
45525;BME280;31437;58.350;13.828;2023-03-25T15:51:17;98719.53;;;5.99;100.00
45525;BME280;31437;58.350;13.828;2023-03-25T15:54:00;98712.59;;;5.83;100.00
45525;BME280;31437;58.350;13.828;2023-03-25T15:56:33;98717.28;;;5.62;100.00
45525;BME280;31437;58.350;13.828;2023-03-25T15:59:05;98719.41;;;5.40;100.00
45525;BME280;31437;58.350;13.828;2023-03-25T16:01:35;98727.72;;;5.31;100.00
45525;BME280;31437;58.350;13.828;2023-03-25T16:06:28;98742.66;;;5.11;100.00
45525;BME280;31437;58.350;13.828;2023-03-25T16:08:55;98744.84;;;5.03;100.00
45525;BME280;31437;58.350;13.828;2023-03-25T16:11:25;98754.53;;;4.99;100.00
45525;BME280;31437;58.350;13.828;2023-03-25T16:14:01;98763.50;;;4.94;100.00
45525;BME280;31437;58.350;13.828;2023-03-25T16:16:27;98768.03;;;4.90;100.00
45525;BME280;31437;58.350;13.828;2023-03-25T16:18:53;98784.72;;;4.86;100.00
45525;BME280;31437;58.350;13.828;2023-03-25T16:21:19;98783.97;;;4.84;100.00
45525;BME280;31437;58.350;13.828;2023-03-25T16:23:45;98791.69;;;4.86;100.00